Time;durP1;ratioP1;P1;durP2;ratioP2;P2;SDS_P1;SDS_P2;PMS_P1;PMS_P2;Temp;Humidity;BMP_temperature;BMP_pressure;BME280_temperature;BME280_humidity;BME280_pressure;Samples;Min_cycle;Max_cycle;Signal;HPM_P1;HPM_P2
2024/04/03 00:00:45;;;;;;;0.10;0.10;;;10.10;1.00;;;;;;5000587;28;20051;-89
2024/04/03 00:03:11;;;;;;;0.20;0.20;;;10.10;1.00;;;;;;4977074;28;20145;-90
2024/04/03 00:05:37;;;;;;;0.10;0.10;;;10.10;1.00;;;;;;5002543;28;20508;-91
2024/04/03 00:08:03;;;;;;;0.13;0.13;;;10.20;1.00;;;;;;5014307;28;20136;-90
2024/04/03 00:10:30;;;;;;;0.20;0.20;;;10.10;1.00;;;;;;5003740;28;20034;-91
2024/04/03 00:12:55;;;;;;;0.10;0.10;;;10.10;1.00;;;;;;4994704;28;20049;-90
2024/04/03 00:15:21;;;;;;;0.10;0.10;;;10.10;1.00;;;;;;4994188;28;20398;-89
2024/04/03 00:17:47;;;;;;;0.10;0.10;;;10.10;1.00;;;;;;4994873;28;20061;-90
2024/04/03 00:20:13;;;;;;;0.10;0.10;;;10.00;1.00;;;;;;5005763;28;20049;-90
2024/04/03 00:22:38;;;;;;;0.10;0.10;;;10.10;1.00;;;;;;5008152;28;20042;-90
2024/04/03 00:25:05;;;;;;;0.10;0.10;;;10.10;1.00;;;;;;4993833;28;20038;-88
2024/04/03 00:27:31;;;;;;;0.10;0.10;;;10.10;1.00;;;;;;4993874;28;20054;-91
2024/04/03 00:29:56;;;;;;;0.10;0.10;;;10.00;1.00;;;;;;5000253;28;20049;-89
2024/04/03 00:32:22;;;;;;;0.20;0.20;;;10.30;1.00;;;;;;5003375;28;20494;-90
2024/04/03 00:34:51;;;;;;;0.10;0.10;;;10.00;1.00;;;;;;4991018;28;20043;-90
2024/04/03 00:37:17;;;;;;;0.10;0.10;;;10.10;1.00;;;;;;4994683;28;20522;-89
2024/04/03 00:39:43;;;;;;;0.20;0.20;;;10.10;1.00;;;;;;5000838;28;20052;-91
2024/04/03 00:42:08;;;;;;;0.10;0.10;;;10.00;1.00;;;;;;5012726;28;20085;-91
2024/04/03 00:44:34;;;;;;;0.13;0.13;;;10.10;1.00;;;;;;4994813;28;20046;-91
2024/04/03 00:47:02;;;;;;;0.10;0.10;;;10.10;1.00;;;;;;4995998;28;20129;-90
2024/04/03 00:49:29;;;;;;;0.10;0.10;;;10.10;1.00;;;;;;4993006;28;20121;-91
2024/04/03 00:51:55;;;;;;;0.13;0.13;;;10.10;1.00;;;;;;4993339;28;20070;-89
2024/04/03 00:54:21;;;;;;;0.10;0.10;;;10.00;1.00;;;;;;5000267;28;20099;-90
2024/04/03 00:56:47;;;;;;;0.10;0.10;;;10.00;1.00;;;;;;4994345;28;20125;-90
2024/04/03 00:59:16;;;;;;;0.20;0.20;;;10.10;1.00;;;;;;5000623;28;20576;-90
2024/04/03 01:01:41;;;;;;;0.10;0.10;;;10.20;1.00;;;;;;4993573;28;20046;-90
2024/04/03 01:04:07;;;;;;;0.20;0.20;;;10.10;1.00;;;;;;5002879;28;20061;-90
2024/04/03 01:06:34;;;;;;;0.10;0.10;;;10.10;1.00;;;;;;4993942;28;20042;-90
2024/04/03 01:09:00;;;;;;;0.10;0.10;;;10.10;1.00;;;;;;4993814;28;20058;-90
2024/04/03 01:11:25;;;;;;;0.15;0.15;;;10.10;1.00;;;;;;5000952;28;20018;-89
2024/04/03 01:13:51;;;;;;;0.20;0.20;;;10.30;1.00;;;;;;5008239;28;20054;-89
2024/04/03 01:16:17;;;;;;;0.10;0.10;;;10.10;1.00;;;;;;5012857;28;20142;-90
2024/04/03 01:18:42;;;;;;;0.10;0.10;;;10.20;1.00;;;;;;5006509;28;20035;-90
2024/04/03 01:21:08;;;;;;;0.20;0.20;;;10.20;1.00;;;;;;4995213;28;20054;-90
2024/04/03 01:23:33;;;;;;;0.10;0.10;;;10.20;1.00;;;;;;4993651;28;20140;-90
2024/04/03 01:25:59;;;;;;;0.13;0.13;;;10.20;1.00;;;;;;4992354;28;20050;-90
2024/04/03 01:28:25;;;;;;;0.13;0.13;;;10.40;1.00;;;;;;4993362;28;20057;-90
2024/04/03 01:30:50;;;;;;;0.10;0.10;;;10.10;1.00;;;;;;4994572;28;20046;-90
2024/04/03 01:33:16;;;;;;;0.10;0.10;;;10.20;1.00;;;;;;4990691;28;20082;-91
2024/04/03 01:35:41;;;;;;;0.10;0.10;;;10.30;1.00;;;;;;4992400;28;20148;-91
2024/04/03 01:38:07;;;;;;;0.10;0.10;;;10.20;1.00;;;;;;4994474;28;20065;-89
2024/04/03 01:40:33;;;;;;;0.10;0.10;;;10.50;1.00;;;;;;4996495;28;20047;-91
2024/04/03 01:42:58;;;;;;;0.10;0.10;;;10.30;1.00;;;;;;4999119;28;20473;-90
2024/04/03 01:45:24;;;;;;;0.10;0.10;;;10.30;1.00;;;;;;4997143;28;20030;-90
2024/04/03 01:47:50;;;;;;;0.10;0.10;;;10.30;1.00;;;;;;4990059;28;20045;-91
2024/04/03 01:50:21;;;;;;;0.10;0.10;;;10.30;1.00;;;;;;4997456;28;20050;-89
2024/04/03 01:52:49;;;;;;;0.20;0.20;;;10.30;1.00;;;;;;4978874;28;20086;-90
2024/04/03 01:55:15;;;;;;;0.10;0.10;;;10.70;1.00;;;;;;4993125;28;20403;-90
2024/04/03 01:57:41;;;;;;;0.10;0.10;;;10.40;1.00;;;;;;4997323;28;20065;-90
2024/04/03 02:00:07;;;;;;;0.10;0.10;;;10.70;1.00;;;;;;4991825;28;20117;-90
2024/04/03 02:02:33;;;;;;;0.10;0.10;;;10.40;1.00;;;;;;4996974;28;20086;-90
2024/04/03 02:04:59;;;;;;;0.20;0.20;;;10.40;1.00;;;;;;4992625;28;20050;-90
2024/04/03 02:07:25;;;;;;;0.20;0.20;;;10.40;1.00;;;;;;4994469;28;20056;-90
2024/04/03 02:09:50;;;;;;;0.10;0.10;;;10.60;1.00;;;;;;4990608;28;20042;-90
2024/04/03 02:12:16;;;;;;;0.10;0.10;;;10.20;1.00;;;;;;4992797;28;20342;-90
2024/04/03 02:14:42;;;;;;;0.10;0.10;;;10.40;1.00;;;;;;4991635;28;20426;-90
2024/04/03 02:17:08;;;;;;;0.10;0.10;;;10.40;1.00;;;;;;4997689;28;20053;-89
2024/04/03 02:19:33;;;;;;;0.10;0.10;;;10.40;1.00;;;;;;4993768;28;20379;-91
2024/04/03 02:21:59;;;;;;;0.13;0.13;;;10.50;1.00;;;;;;4993229;28;20077;-91
2024/04/03 02:24:25;;;;;;;0.13;0.13;;;10.80;1.00;;;;;;4992429;28;20053;-91
2024/04/03 02:26:50;;;;;;;0.10;0.10;;;10.50;1.00;;;;;;4994429;28;20046;-91
2024/04/03 02:29:17;;;;;;;0.10;0.10;;;10.50;1.00;;;;;;4995582;28;20049;-90
2024/04/03 02:31:43;;;;;;;0.15;0.15;;;10.40;1.00;;;;;;4996645;28;20031;-90
2024/04/03 02:34:09;;;;;;;0.10;0.10;;;10.40;1.00;;;;;;4996795;28;20448;-87
2024/04/03 02:36:35;;;;;;;0.10;0.10;;;10.40;1.00;;;;;;4987726;28;20089;-89
2024/04/03 02:39:01;;;;;;;0.10;0.10;;;10.40;1.00;;;;;;5004421;28;20058;-87
2024/04/03 02:41:26;;;;;;;0.10;0.10;;;10.40;1.00;;;;;;4989211;28;20042;-89
2024/04/03 02:43:52;;;;;;;0.10;0.10;;;10.40;1.00;;;;;;4987382;28;20042;-87
2024/04/03 02:46:18;;;;;;;0.10;0.10;;;10.60;1.00;;;;;;4994110;28;20101;-87
2024/04/03 02:48:43;;;;;;;0.20;0.20;;;10.30;1.00;;;;;;4992775;28;20100;-87
2024/04/03 02:51:12;;;;;;;0.15;0.15;;;10.30;1.00;;;;;;4990756;28;20046;-88
2024/04/03 02:53:38;;;;;;;0.20;0.20;;;10.30;1.00;;;;;;4990581;28;20198;-90
2024/04/03 02:56:05;;;;;;;0.20;0.20;;;10.20;1.00;;;;;;4991465;28;20375;-87
2024/04/03 02:58:31;;;;;;;0.10;0.10;;;10.30;1.00;;;;;;5009754;28;20513;-88
2024/04/03 03:01:08;;;;;;;0.10;0.10;;;10.30;1.00;;;;;;5008178;28;20041;-87
2024/04/03 03:03:33;;;;;;;0.20;0.20;;;10.20;1.00;;;;;;4993082;28;20134;-88
2024/04/03 03:06:00;;;;;;;0.10;0.10;;;10.20;1.00;;;;;;4979812;28;20082;-89
2024/04/03 03:08:28;;;;;;;0.10;0.10;;;10.30;1.00;;;;;;4991348;28;20097;-89
2024/04/03 03:10:54;;;;;;;0.10;0.10;;;10.20;1.00;;;;;;4991863;28;20054;-91
2024/04/03 03:13:20;;;;;;;0.20;0.20;;;10.50;1.00;;;;;;5003067;28;20057;-91
2024/04/03 03:15:56;;;;;;;0.10;0.10;;;10.30;1.00;;;;;;4992612;28;20030;-93
2024/04/03 03:18:25;;;;;;;0.10;0.10;;;10.10;1.00;;;;;;4996773;28;20058;-91
2024/04/03 03:20:51;;;;;;;0.20;0.20;;;10.00;1.00;;;;;;5006107;28;20061;-89
2024/04/03 03:23:17;;;;;;;0.13;0.13;;;10.00;1.00;;;;;;4991459;28;20173;-91
2024/04/03 03:25:44;;;;;;;0.10;0.10;;;10.00;1.00;;;;;;4991495;28;20053;-91
2024/04/03 03:28:11;;;;;;;0.10;0.10;;;10.00;1.00;;;;;;4998864;28;20073;-92
2024/04/03 03:30:37;;;;;;;0.15;0.15;;;9.90;1.00;;;;;;5005305;28;20494;-92
2024/04/03 03:33:03;;;;;;;0.10;0.10;;;10.10;1.00;;;;;;5011028;28;20057;-91
2024/04/03 03:35:28;;;;;;;0.10;0.10;;;9.90;1.00;;;;;;5006141;28;20042;-90
2024/04/03 03:37:54;;;;;;;0.10;0.10;;;9.90;1.00;;;;;;4989783;28;20530;-92
2024/04/03 03:40:20;;;;;;;0.20;0.20;;;9.90;1.00;;;;;;4991131;28;20133;-92
2024/04/03 03:42:45;;;;;;;0.10;0.10;;;9.90;1.00;;;;;;5010458;28;20564;-91
2024/04/03 03:45:20;;;;;;;0.17;0.17;;;9.90;1.00;;;;;;5010908;28;20076;-92
2024/04/03 03:47:46;;;;;;;0.10;0.10;;;9.90;1.00;;;;;;5002780;28;20043;-92
2024/04/03 03:52:57;;;;;;;0.20;0.20;;;9.90;1.00;;;;;;5006741;28;20069;-94
2024/04/03 03:55:25;;;;;;;0.20;0.20;;;9.90;1.00;;;;;;4991006;28;20124;-95
2024/04/03 03:57:51;;;;;;;0.20;0.20;;;9.90;1.00;;;;;;4992347;28;20172;-95
2024/04/03 04:00:17;;;;;;;0.10;0.10;;;9.90;1.00;;;;;;4993469;28;20050;-96
2024/04/03 04:02:42;;;;;;;0.20;0.20;;;9.90;1.00;;;;;;4990374;28;20053;-95
2024/04/03 04:05:08;;;;;;;0.10;0.10;;;9.90;1.00;;;;;;4995165;28;20049;-94
2024/04/03 04:07:33;;;;;;;0.10;0.10;;;9.90;1.00;;;;;;5015918;28;20054;-95
2024/04/03 04:09:59;;;;;;;0.10;0.10;;;9.90;1.00;;;;;;5012760;28;20046;-94
2024/04/03 04:12:25;;;;;;;0.20;0.20;;;9.90;1.00;;;;;;5004951;28;20046;-96
2024/04/03 04:14:52;;;;;;;0.20;0.20;;;10.10;1.00;;;;;;5012466;28;20121;-96
2024/04/03 04:17:19;;;;;;;0.13;0.13;;;9.80;1.00;;;;;;5024610;28;20053;-95
2024/04/03 04:19:45;;;;;;;0.20;0.20;;;9.80;1.00;;;;;;5012821;28;20348;-95
2024/04/03 04:22:11;;;;;;;0.20;0.20;;;9.80;1.00;;;;;;5000212;28;20466;-95
2024/04/03 04:24:38;;;;;;;0.10;0.10;;;9.80;1.00;;;;;;5003526;28;20034;-96
2024/04/03 04:27:10;;;;;;;0.10;0.10;;;9.60;1.00;;;;;;5002758;28;20045;-95
2024/04/03 04:29:36;;;;;;;0.20;0.20;;;9.80;1.00;;;;;;5012180;28;20073;-95
2024/04/03 04:32:09;;;;;;;0.10;0.10;;;9.80;1.00;;;;;;5004002;28;20395;-96
2024/04/03 04:34:39;;;;;;;0.10;0.10;;;9.80;1.00;;;;;;5012156;28;20050;-96
2024/04/03 04:37:04;;;;;;;0.10;0.10;;;9.80;1.00;;;;;;5007756;28;20112;-95
2024/04/03 04:39:30;;;;;;;0.10;0.10;;;9.80;1.00;;;;;;5011033;28;20046;-95
2024/04/03 04:41:56;;;;;;;0.20;0.20;;;9.70;1.00;;;;;;5012288;28;20042;-93
2024/04/03 04:44:21;;;;;;;0.20;0.20;;;10.20;1.00;;;;;;5010151;28;20042;-95
2024/04/03 04:46:48;;;;;;;0.20;0.20;;;9.80;1.00;;;;;;5017215;28;20038;-95
2024/04/03 04:49:18;;;;;;;0.20;0.20;;;9.70;1.00;;;;;;5019595;28;20042;-96
2024/04/03 04:51:44;;;;;;;0.20;0.20;;;9.80;1.00;;;;;;5016670;28;20026;-96
2024/04/03 04:54:15;;;;;;;0.20;0.20;;;9.70;1.00;;;;;;5017751;28;20053;-95
2024/04/03 04:56:41;;;;;;;0.20;0.20;;;9.70;1.00;;;;;;5024518;28;20506;-95
2024/04/03 04:59:08;;;;;;;0.20;0.20;;;9.40;1.00;;;;;;5021881;28;20030;-95
2024/04/03 05:01:34;;;;;;;0.10;0.10;;;9.70;1.00;;;;;;5008090;28;20053;-94
2024/04/03 05:04:01;;;;;;;0.10;0.10;;;10.20;1.00;;;;;;5000015;28;20077;-93
2024/04/03 05:06:27;;;;;;;0.10;0.10;;;9.70;1.00;;;;;;5004222;28;20049;-95
2024/04/03 05:08:52;;;;;;;0.20;0.20;;;9.70;1.00;;;;;;5015407;28;20047;-94
2024/04/03 05:11:18;;;;;;;0.20;0.20;;;9.70;1.00;;;;;;5006889;28;20038;-92
2024/04/03 05:13:45;;;;;;;0.10;0.10;;;9.70;1.00;;;;;;5002675;28;20048;-91
2024/04/03 05:16:12;;;;;;;0.10;0.10;;;9.70;1.00;;;;;;5001335;28;20605;-92
2024/04/03 05:18:39;;;;;;;0.20;0.20;;;9.70;1.00;;;;;;4996155;28;20061;-92
2024/04/03 05:21:05;;;;;;;0.10;0.10;;;9.70;1.00;;;;;;4997455;28;20069;-92
2024/04/03 05:23:31;;;;;;;0.10;0.10;;;9.70;1.00;;;;;;4997118;28;20069;-91
2024/04/03 05:26:01;;;;;;;0.10;0.10;;;9.60;1.00;;;;;;4996218;28;20084;-92
2024/04/03 05:28:30;;;;;;;0.20;0.20;;;9.60;1.00;;;;;;4995267;28;20050;-91
2024/04/03 05:31:05;;;;;;;0.10;0.10;;;9.60;1.00;;;;;;4995116;28;20049;-92
2024/04/03 05:33:32;;;;;;;0.10;0.10;;;9.60;1.00;;;;;;5011067;28;20050;-91
2024/04/03 05:36:02;;;;;;;0.10;0.10;;;9.60;1.00;;;;;;5013617;28;20546;-92
2024/04/03 05:38:28;;;;;;;0.20;0.20;;;9.60;1.00;;;;;;4996651;28;20038;-92
2024/04/03 05:40:54;;;;;;;0.20;0.20;;;9.60;1.00;;;;;;4991494;28;20049;-91
2024/04/03 05:43:21;;;;;;;0.20;0.20;;;9.70;1.00;;;;;;4993413;28;20120;-92
2024/04/03 05:45:47;;;;;;;0.20;0.20;;;9.70;1.00;;;;;;5002397;28;20051;-91
2024/04/03 05:48:14;;;;;;;0.20;0.20;;;9.60;1.00;;;;;;4994102;28;20406;-91
2024/04/03 05:50:40;;;;;;;0.20;0.20;;;9.80;1.00;;;;;;4995176;28;20486;-90
2024/04/03 05:53:06;;;;;;;0.13;0.13;;;9.70;1.00;;;;;;4994406;28;20379;-91
2024/04/03 05:55:32;;;;;;;0.10;0.10;;;9.70;1.00;;;;;;4993369;28;20093;-90
2024/04/03 05:58:02;;;;;;;0.10;0.10;;;9.80;1.00;;;;;;4973809;28;20121;-90
2024/04/03 06:00:28;;;;;;;0.20;0.20;;;9.70;1.00;;;;;;4996958;28;20053;-90
2024/04/03 06:02:54;;;;;;;0.20;0.20;;;9.70;1.00;;;;;;4992745;28;20046;-92
2024/04/03 06:05:19;;;;;;;0.10;0.10;;;9.70;1.00;;;;;;5007421;28;20037;-90
2024/04/03 06:07:45;;;;;;;0.10;0.10;;;9.70;1.00;;;;;;5003831;28;20066;-92
2024/04/03 06:10:13;;;;;;;0.10;0.10;;;9.70;1.00;;;;;;4993968;28;20049;-90
2024/04/03 06:12:42;;;;;;;0.10;0.10;;;9.70;1.00;;;;;;4984912;28;20046;-89
2024/04/03 06:15:08;;;;;;;0.10;0.10;;;9.70;1.00;;;;;;5001713;28;20049;-90
2024/04/03 06:17:34;;;;;;;0.10;0.10;;;9.80;1.00;;;;;;5007673;28;20077;-90
2024/04/03 06:20:00;;;;;;;0.10;0.10;;;9.70;1.00;;;;;;4994278;28;20482;-91
2024/04/03 06:22:26;;;;;;;0.10;0.10;;;9.80;1.00;;;;;;5000432;28;20056;-90
2024/04/03 06:24:51;;;;;;;0.20;0.20;;;9.80;1.00;;;;;;5005262;28;20058;-89
2024/04/03 06:27:17;;;;;;;0.20;0.20;;;9.80;1.00;;;;;;4991567;28;20061;-88
2024/04/03 06:29:42;;;;;;;0.10;0.10;;;9.80;1.00;;;;;;4990150;28;20410;-89
2024/04/03 06:32:08;;;;;;;0.10;0.10;;;9.80;1.00;;;;;;4991434;28;20435;-89
2024/04/03 06:34:34;;;;;;;0.10;0.10;;;9.90;1.00;;;;;;5002950;28;20057;-89
2024/04/03 06:37:00;;;;;;;0.10;0.10;;;9.80;1.00;;;;;;4991811;28;20058;-88
2024/04/03 06:39:25;;;;;;;0.10;0.10;;;9.80;1.00;;;;;;4992833;28;20055;-89
2024/04/03 06:41:51;;;;;;;0.10;0.10;;;9.80;1.00;;;;;;4990985;28;20444;-89
2024/04/03 06:44:18;;;;;;;0.20;0.20;;;9.90;1.00;;;;;;4990392;28;20107;-88
2024/04/03 06:46:43;;;;;;;0.10;0.10;;;9.90;1.00;;;;;;4989961;28;20065;-89
2024/04/03 06:49:11;;;;;;;0.17;0.17;;;9.90;1.00;;;;;;4989529;28;20046;-88
2024/04/03 06:51:37;;;;;;;0.10;0.10;;;9.90;1.00;;;;;;4992729;28;20109;-88
2024/04/03 06:54:03;;;;;;;0.10;0.10;;;9.90;1.00;;;;;;4991396;28;20131;-89
2024/04/03 06:56:31;;;;;;;0.20;0.20;;;10.00;1.00;;;;;;4990207;28;20108;-90
2024/04/03 06:58:57;;;;;;;0.10;0.10;;;10.00;1.00;;;;;;4989704;28;20053;-87
2024/04/03 07:01:22;;;;;;;0.10;0.10;;;10.00;1.00;;;;;;4990126;28;20042;-83
2024/04/03 07:03:48;;;;;;;0.20;0.20;;;10.00;1.00;;;;;;4985681;28;20045;-83
2024/04/03 07:06:14;;;;;;;0.20;0.20;;;10.10;1.00;;;;;;4992313;28;20131;-82
2024/04/03 07:08:39;;;;;;;0.10;0.10;;;10.00;1.00;;;;;;4991794;28;20522;-82
2024/04/03 07:11:05;;;;;;;0.10;0.10;;;10.00;1.00;;;;;;4988910;28;20046;-82
2024/04/03 07:13:30;;;;;;;0.20;0.20;;;9.90;1.00;;;;;;4989909;28;20406;-82
2024/04/03 07:15:56;;;;;;;0.15;0.15;;;10.00;1.00;;;;;;4988503;28;20038;-82
2024/04/03 07:18:22;;;;;;;0.20;0.20;;;10.00;1.00;;;;;;4986015;28;20046;-82
2024/04/03 07:20:58;;;;;;;0.20;0.20;;;10.00;1.00;;;;;;4990522;28;20054;-82
2024/04/03 07:23:26;;;;;;;0.15;0.15;;;10.00;1.00;;;;;;4988173;28;20082;-82
2024/04/03 07:25:53;;;;;;;0.10;0.10;;;10.20;1.00;;;;;;5005033;28;20556;-82
2024/04/03 07:28:19;;;;;;;0.20;0.20;;;10.00;1.00;;;;;;4989406;28;20101;-82
2024/04/03 07:30:44;;;;;;;0.10;0.10;;;10.00;1.00;;;;;;4989669;28;20050;-82
2024/04/03 07:33:10;;;;;;;0.10;0.10;;;10.00;1.00;;;;;;4987486;28;20478;-83
2024/04/03 07:35:36;;;;;;;0.10;0.10;;;10.00;1.00;;;;;;4993193;28;20394;-82
2024/04/03 07:38:03;;;;;;;0.15;0.15;;;10.10;1.00;;;;;;4995988;28;20109;-83
2024/04/03 07:40:29;;;;;;;0.20;0.20;;;10.10;1.00;;;;;;4978201;28;20050;-83
2024/04/03 07:42:55;;;;;;;0.10;0.10;;;10.20;1.00;;;;;;4991110;28;20133;-83
2024/04/03 07:45:20;;;;;;;0.10;0.10;;;10.20;1.00;;;;;;4987584;28;20093;-82
2024/04/03 07:47:48;;;;;;;0.10;0.10;;;10.10;1.00;;;;;;4987040;28;20391;-82
2024/04/03 07:50:14;;;;;;;0.13;0.13;;;10.20;1.00;;;;;;4990690;28;20046;-84
2024/04/03 07:52:40;;;;;;;0.10;0.10;;;10.30;1.00;;;;;;4993442;28;20101;-83
2024/04/03 07:55:07;;;;;;;0.10;0.10;;;10.30;1.00;;;;;;4989781;28;20517;-82
2024/04/03 07:57:34;;;;;;;0.10;0.10;;;10.30;1.00;;;;;;4990959;28;20070;-83
2024/04/03 08:00:04;;;;;;;0.10;0.10;;;10.50;1.00;;;;;;4986981;28;20118;-83
2024/04/03 08:02:37;;;;;;;0.10;0.10;;;10.50;1.00;;;;;;4978550;28;20038;-84
2024/04/03 08:05:09;;;;;;;0.10;0.10;;;10.40;1.00;;;;;;4980586;28;20070;-84
2024/04/03 08:07:35;;;;;;;0.10;0.10;;;10.50;1.00;;;;;;4988834;28;20103;-84
2024/04/03 08:10:08;;;;;;;0.10;0.10;;;10.40;1.00;;;;;;4992590;28;20058;-84
2024/04/03 08:12:35;;;;;;;0.10;0.10;;;10.40;1.00;;;;;;4990279;28;20399;-84
2024/04/03 08:15:01;;;;;;;0.10;0.10;;;10.40;1.00;;;;;;4970810;28;20129;-83
2024/04/03 08:17:27;;;;;;;0.10;0.10;;;10.50;1.00;;;;;;4998354;28;20181;-83
2024/04/03 08:19:54;;;;;;;0.10;0.10;;;10.60;1.00;;;;;;4992410;28;20050;-83
2024/04/03 08:22:20;;;;;;;0.10;0.10;;;10.60;1.00;;;;;;4992213;28;20058;-84
2024/04/03 08:24:47;;;;;;;0.10;0.10;;;10.70;1.00;;;;;;4992510;28;20394;-83
2024/04/03 08:27:13;;;;;;;0.20;0.20;;;10.70;1.00;;;;;;4992895;28;20060;-83
2024/04/03 08:29:42;;;;;;;0.10;0.10;;;10.80;1.00;;;;;;4996922;28;20046;-84
2024/04/03 08:32:10;;;;;;;0.10;0.10;;;10.80;1.00;;;;;;5006100;28;20371;-83
2024/04/03 08:34:37;;;;;;;0.10;0.10;;;10.90;1.00;;;;;;4994062;28;20050;-84
2024/04/03 08:37:04;;;;;;;0.10;0.10;;;10.80;1.00;;;;;;4996692;28;20077;-84
2024/04/03 08:39:30;;;;;;;0.10;0.10;;;10.90;1.00;;;;;;4980186;28;20046;-83
2024/04/03 08:41:58;;;;;;;0.10;0.10;;;10.90;1.00;;;;;;4990743;28;20041;-82
2024/04/03 08:44:30;;;;;;;0.10;0.10;;;10.90;1.00;;;;;;4985589;28;20042;-83
2024/04/03 08:46:56;;;;;;;0.10;0.10;;;10.90;1.00;;;;;;4978783;28;20047;-83
2024/04/03 08:49:27;;;;;;;0.20;0.20;;;10.80;1.00;;;;;;5003831;28;20104;-84
2024/04/03 08:52:11;;;;;;;0.17;0.17;;;10.90;1.00;;;;;;4992314;28;20134;-82
2024/04/03 08:54:42;;;;;;;0.10;0.10;;;10.80;1.00;;;;;;4992494;28;20053;-81
2024/04/03 08:57:09;;;;;;;0.10;0.10;;;10.80;1.00;;;;;;4989117;28;20442;-82
2024/04/03 08:59:38;;;;;;;0.10;0.10;;;10.70;1.00;;;;;;4992195;28;20081;-82
2024/04/03 09:02:04;;;;;;;0.10;0.10;;;10.80;1.00;;;;;;4991140;28;20391;-81
2024/04/03 09:04:31;;;;;;;0.10;0.10;;;10.80;1.00;;;;;;4990452;28;20038;-81
2024/04/03 09:06:56;;;;;;;0.20;0.20;;;10.90;1.00;;;;;;4991511;28;20074;-80
2024/04/03 09:09:27;;;;;;;0.10;0.10;;;10.90;1.00;;;;;;4992037;28;20093;-81
2024/04/03 09:12:04;;;;;;;0.10;0.10;;;10.90;1.00;;;;;;4981629;28;20110;-80
2024/04/03 09:14:30;;;;;;;0.10;0.10;;;10.90;1.00;;;;;;4986940;28;20042;-81
2024/04/03 09:17:00;;;;;;;0.10;0.10;;;11.00;1.00;;;;;;4991127;28;20046;-81
2024/04/03 09:19:26;;;;;;;0.10;0.10;;;11.00;1.00;;;;;;4990428;28;20085;-83
2024/04/03 09:21:57;;;;;;;0.17;0.17;;;11.10;1.00;;;;;;4991341;28;20418;-81
2024/04/03 09:24:23;;;;;;;0.15;0.15;;;11.10;1.00;;;;;;4990638;28;20049;-81
2024/04/03 09:26:56;;;;;;;0.10;0.10;;;11.20;1.00;;;;;;4995446;28;20136;-80
2024/04/03 09:29:23;;;;;;;0.10;0.10;;;11.30;1.00;;;;;;4990985;28;20044;-81
2024/04/03 09:31:49;;;;;;;0.20;0.20;;;11.30;1.00;;;;;;4989941;28;20581;-81
2024/04/03 09:34:15;;;;;;;0.10;0.10;;;11.30;1.00;;;;;;4990173;28;20435;-82
2024/04/03 09:36:41;;;;;;;0.10;0.10;;;11.60;1.00;;;;;;4995604;28;20093;-80
2024/04/03 09:39:11;;;;;;;0.10;0.10;;;11.50;1.00;;;;;;4988783;28;20486;-82
2024/04/03 09:41:39;;;;;;;0.10;0.10;;;11.60;1.00;;;;;;4990338;28;20117;-82
2024/04/03 09:44:07;;;;;;;0.15;0.15;;;12.10;1.00;;;;;;4983318;28;20096;-81
2024/04/03 09:46:41;;;;;;;0.10;0.10;;;11.80;1.00;;;;;;4982950;28;20069;-82
2024/04/03 09:49:11;;;;;;;0.10;0.10;;;11.90;1.00;;;;;;4986293;28;20034;-81
2024/04/03 09:51:36;;;;;;;0.10;0.10;;;12.00;1.00;;;;;;4984110;28;20047;-83
2024/04/03 09:54:03;;;;;;;0.13;0.13;;;12.00;1.00;;;;;;4988501;28;20509;-83
2024/04/03 09:56:29;;;;;;;0.20;0.20;;;12.00;1.00;;;;;;4991376;28;20096;-83
2024/04/03 09:58:54;;;;;;;0.20;0.20;;;12.10;1.00;;;;;;4990194;28;20430;-84
2024/04/03 10:01:21;;;;;;;0.10;0.10;;;12.10;1.00;;;;;;4991259;28;20490;-83
2024/04/03 10:03:47;;;;;;;0.10;0.10;;;12.20;1.00;;;;;;4989314;28;20451;-81
2024/04/03 10:06:16;;;;;;;0.10;0.10;;;12.30;1.00;;;;;;4990837;28;20072;-82
2024/04/03 10:08:46;;;;;;;0.10;0.10;;;12.30;1.00;;;;;;4990326;28;20046;-82
2024/04/03 10:11:16;;;;;;;0.20;0.20;;;12.30;1.00;;;;;;4991343;28;20485;-82
2024/04/03 10:13:46;;;;;;;0.10;0.10;;;12.40;1.00;;;;;;4989173;28;20064;-82
2024/04/03 10:16:13;;;;;;;0.10;0.10;;;12.40;1.00;;;;;;4991510;28;20493;-82
2024/04/03 10:18:49;;;;;;;0.10;0.10;;;12.40;1.00;;;;;;4989614;28;20050;-81
2024/04/03 10:21:15;;;;;;;0.17;0.17;;;12.30;1.00;;;;;;4990289;28;20042;-82
2024/04/03 10:23:49;;;;;;;0.20;0.20;;;12.30;1.00;;;;;;4990120;28;20042;-82
2024/04/03 10:26:17;;;;;;;0.10;0.10;;;12.20;1.00;;;;;;4992501;28;20502;-82
2024/04/03 10:28:45;;;;;;;0.13;0.13;;;12.20;1.00;;;;;;4989270;28;20112;-83
2024/04/03 10:31:17;;;;;;;0.10;0.10;;;12.10;1.00;;;;;;4990832;28;20409;-83
2024/04/03 10:33:43;;;;;;;0.20;0.20;;;12.20;1.00;;;;;;4988869;28;20049;-83
2024/04/03 10:36:09;;;;;;;0.10;0.10;;;12.20;1.00;;;;;;4989817;28;20088;-82
2024/04/03 10:38:36;;;;;;;0.20;0.20;;;12.40;1.00;;;;;;4991425;28;20053;-82
2024/04/03 10:41:03;;;;;;;0.20;0.20;;;12.30;1.00;;;;;;4989981;28;20054;-82
2024/04/03 10:43:31;;;;;;;0.10;0.10;;;12.30;1.00;;;;;;4985839;28;20068;-82
2024/04/03 10:45:57;;;;;;;0.10;0.10;;;12.40;1.00;;;;;;4990243;28;20050;-82
2024/04/03 10:48:23;;;;;;;0.10;0.10;;;12.40;1.00;;;;;;4988505;28;20799;-82
2024/04/03 10:50:50;;;;;;;0.10;0.10;;;12.40;1.00;;;;;;4991336;28;20115;-80
2024/04/03 10:53:16;;;;;;;0.20;0.20;;;12.50;1.00;;;;;;4991172;28;20053;-83
2024/04/03 10:55:43;;;;;;;0.10;0.10;;;12.60;1.00;;;;;;4989673;28;20073;-81
2024/04/03 10:58:09;;;;;;;0.10;0.10;;;12.70;1.00;;;;;;4991454;28;20042;-82
2024/04/03 11:00:45;;;;;;;0.10;0.10;;;12.80;1.00;;;;;;4990683;28;20108;-83
2024/04/03 11:03:11;;;;;;;0.20;0.20;;;13.00;1.00;;;;;;4988590;28;20050;-82
2024/04/03 11:05:38;;;;;;;0.10;0.10;;;12.80;1.00;;;;;;4990797;28;20045;-83
2024/04/03 11:08:05;;;;;;;0.10;0.10;;;13.00;1.00;;;;;;4989483;28;20062;-83
2024/04/03 11:10:31;;;;;;;0.10;0.10;;;13.10;1.00;;;;;;4989918;28;20061;-84
2024/04/03 11:13:11;;;;;;;0.20;0.20;;;13.20;1.00;;;;;;4971915;28;20074;-82
2024/04/03 11:15:37;;;;;;;0.15;0.15;;;13.40;1.00;;;;;;4990237;28;20423;-82
2024/04/03 11:18:04;;;;;;;0.10;0.10;;;13.50;1.00;;;;;;4988438;28;20050;-83
2024/04/03 11:20:32;;;;;;;0.10;0.10;;;13.50;1.00;;;;;;4989969;28;20054;-82
2024/04/03 11:22:59;;;;;;;0.10;0.10;;;13.50;1.00;;;;;;4989144;28;20379;-82
2024/04/03 11:25:31;;;;;;;0.10;0.10;;;13.50;1.00;;;;;;4989392;28;20482;-82
2024/04/03 11:28:00;;;;;;;0.13;0.13;;;13.50;1.00;;;;;;4989351;28;20092;-81
2024/04/03 11:30:26;;;;;;;0.10;0.10;;;13.50;1.00;;;;;;4989621;28;20514;-82
2024/04/03 11:32:52;;;;;;;0.20;0.20;;;13.60;1.00;;;;;;4989420;28;20042;-82
2024/04/03 11:35:18;;;;;;;0.20;0.20;;;13.60;1.00;;;;;;4988862;28;20046;-82
2024/04/03 11:37:44;;;;;;;0.10;0.10;;;13.80;1.00;;;;;;4968625;28;20109;-82
2024/04/03 11:40:09;;;;;;;0.10;0.10;;;13.60;1.00;;;;;;4970327;28;20391;-82
2024/04/03 11:42:35;;;;;;;0.10;0.10;;;13.60;1.00;;;;;;5001547;28;20065;-82
2024/04/03 11:45:04;;;;;;;0.20;0.20;;;13.60;1.00;;;;;;4974755;28;20054;-81
2024/04/03 11:47:30;;;;;;;0.10;0.10;;;13.60;1.00;;;;;;4974091;28;20049;-81
2024/04/03 11:49:56;;;;;;;0.10;0.10;;;13.70;1.00;;;;;;4973074;28;20447;-81
2024/04/03 11:52:22;;;;;;;0.20;0.20;;;13.80;1.00;;;;;;4976395;28;20161;-82
2024/04/03 11:54:47;;;;;;;0.10;0.10;;;13.80;1.00;;;;;;5013122;28;20042;-82
2024/04/03 11:57:14;;;;;;;0.10;0.10;;;13.80;1.00;;;;;;5013606;28;20049;-82
2024/04/03 11:59:40;;;;;;;0.10;0.10;;;13.60;1.00;;;;;;5012296;28;20116;-81
2024/04/03 12:02:05;;;;;;;0.10;0.10;;;13.60;1.00;;;;;;5013252;28;20537;-80
2024/04/03 12:04:31;;;;;;;0.10;0.10;;;13.50;1.00;;;;;;4991958;28;20038;-80
2024/04/03 12:06:58;;;;;;;0.10;0.10;;;13.50;1.00;;;;;;4991510;28;20494;-80
2024/04/03 12:09:24;;;;;;;0.10;0.10;;;13.50;1.00;;;;;;4992924;28;20090;-81
2024/04/03 12:11:49;;;;;;;0.10;0.10;;;13.50;1.00;;;;;;4985366;28;20525;-81
2024/04/03 12:14:15;;;;;;;0.10;0.10;;;13.40;1.00;;;;;;4992620;28;20095;-82
2024/04/03 12:16:41;;;;;;;0.10;0.10;;;13.30;1.00;;;;;;4993288;28;20509;-82
2024/04/03 12:21:50;;;;;;;0.20;0.20;;;13.20;1.00;;;;;;5008243;28;20061;-83
2024/04/03 12:24:16;;;;;;;0.10;0.10;;;13.10;1.00;;;;;;4992941;28;20398;-83
2024/04/03 12:26:42;;;;;;;0.20;0.20;;;13.10;1.00;;;;;;4992562;28;20498;-83
2024/04/03 12:29:08;;;;;;;0.15;0.15;;;13.10;1.00;;;;;;4992706;28;20148;-81
2024/04/03 12:31:33;;;;;;;0.20;0.20;;;13.00;1.00;;;;;;4994676;28;20113;-83
2024/04/03 12:33:59;;;;;;;0.10;0.10;;;13.00;1.00;;;;;;4989466;28;20451;-83
2024/04/03 12:36:25;;;;;;;0.15;0.15;;;13.00;1.00;;;;;;5002298;28;20494;-83
2024/04/03 12:38:53;;;;;;;0.10;0.10;;;13.00;1.00;;;;;;5010869;28;20069;-82
2024/04/03 12:41:21;;;;;;;0.20;0.20;;;13.00;1.00;;;;;;5012381;28;20120;-82
2024/04/03 12:43:47;;;;;;;0.10;0.10;;;13.00;1.00;;;;;;5006164;28;20046;-83
2024/04/03 12:46:13;;;;;;;0.17;0.17;;;13.00;1.00;;;;;;4990072;28;20509;-83
2024/04/03 12:48:40;;;;;;;0.10;0.10;;;12.90;1.00;;;;;;4989895;28;20124;-82
2024/04/03 12:51:05;;;;;;;0.10;0.10;;;13.00;1.00;;;;;;4992859;28;20048;-83
2024/04/03 12:53:31;;;;;;;0.10;0.10;;;13.00;1.00;;;;;;4991424;28;20073;-83
2024/04/03 12:55:57;;;;;;;0.10;0.10;;;13.10;1.00;;;;;;4991728;28;20042;-84
2024/04/03 12:58:23;;;;;;;0.10;0.10;;;13.20;1.00;;;;;;4992458;28;20043;-84
2024/04/03 13:00:48;;;;;;;0.10;0.10;;;13.10;1.00;;;;;;4992133;28;20046;-82
2024/04/03 13:03:14;;;;;;;0.20;0.20;;;13.10;1.00;;;;;;4990636;28;20053;-83